Time;durP1;ratioP1;P1;durP2;ratioP2;P2;SDS_P1;SDS_P2;PMS_P1;PMS_P2;Temp;Humidity;BMP_temperature;BMP_pressure;BME280_temperature;BME280_humidity;BME280_pressure;Samples;Min_cycle;Max_cycle;Signal;HPM_P1;HPM_P2
2023/10/25 00:01:47;;;;;;;14.10;9.50;;;;;;;14.80;100.00;99057.98;1474393;87;22225;-77
2023/10/25 00:04:15;;;;;;;17.07;8.77;;;;;;;14.80;100.00;99057.98;1482573;88;21479;-76
2023/10/25 00:06:42;;;;;;;22.80;9.60;;;;;;;14.81;100.00;99060.94;1478055;87;22285;-77
2023/10/25 00:09:09;;;;;;;19.23;10.50;;;;;;;14.81;100.00;99060.94;1473307;88;21360;-77
2023/10/25 00:11:36;;;;;;;19.93;10.53;;;;;;;14.81;100.00;99051.62;1482363;88;21500;-77
2023/10/25 00:14:04;;;;;;;18.57;9.43;;;;;;;14.80;100.00;99045.19;1480865;87;21442;-77
2023/10/25 00:16:31;;;;;;;18.20;10.40;;;;;;;14.75;100.00;99035.15;1471952;87;22306;-77
2023/10/25 00:18:59;;;;;;;22.00;10.40;;;;;;;14.73;100.00;99033.23;1472044;87;21360;-77
2023/10/25 00:21:26;;;;;;;20.70;9.03;;;;;;;14.75;100.00;99030.34;1470018;88;22484;-76
2023/10/25 00:23:53;;;;;;;25.23;10.13;;;;;;;14.73;100.00;99022.58;1469977;87;21368;-77
2023/10/25 00:26:20;;;;;;;17.00;8.50;;;;;;;14.71;100.00;99017.96;1485238;87;22358;-77
2023/10/25 00:28:47;;;;;;;18.30;9.57;;;;;;;14.71;100.00;99015.30;1472823;88;21412;-78
2023/10/25 00:31:14;;;;;;;15.30;8.93;;;;;;;14.73;100.00;99015.92;1490571;87;22185;-77
2023/10/25 00:33:41;;;;;;;20.40;8.27;;;;;;;14.71;100.00;99006.50;1482990;87;21522;-78
2023/10/25 00:36:09;;;;;;;18.60;9.57;;;;;;;14.68;100.00;99001.59;1489602;87;22261;-78
2023/10/25 00:38:36;;;;;;;16.20;8.77;;;;;;;14.64;100.00;99010.00;1495520;88;22291;-78
2023/10/25 00:41:03;;;;;;;15.70;8.70;;;;;;;14.64;100.00;99015.81;1483378;88;21352;-76
2023/10/25 00:43:30;;;;;;;18.27;10.40;;;;;;;14.67;100.00;99022.05;1478101;88;22217;-77
2023/10/25 00:46:17;;;;;;;17.20;9.47;;;;;;;14.73;100.00;99026.57;1493167;87;21353;-77
2023/10/25 00:48:46;;;;;;;16.03;8.00;;;;;;;14.77;100.00;99029.11;1487680;88;21537;-77
2023/10/25 00:51:16;;;;;;;17.77;9.10;;;;;;;14.81;100.00;99026.32;1481954;87;22306;-76
2023/10/25 00:53:53;;;;;;;21.77;8.10;;;;;;;14.83;100.00;99024.27;1487336;88;21440;-77
2023/10/25 00:56:26;;;;;;;17.13;7.70;;;;;;;14.83;100.00;99018.95;1477731;87;21478;-76
2023/10/25 00:58:56;;;;;;;16.03;9.77;;;;;;;14.82;100.00;99011.19;1481968;87;21345;-76
2023/10/25 01:01:27;;;;;;;21.60;9.13;;;;;;;14.82;100.00;99012.00;1491083;87;22286;-77
2023/10/25 01:03:55;;;;;;;15.40;7.70;;;;;;;14.81;100.00;99014.33;1492747;87;21331;-77
2023/10/25 01:06:22;;;;;;;24.23;10.23;;;;;;;14.80;100.00;99008.72;1485126;87;21604;-76
2023/10/25 01:08:50;;;;;;;19.40;8.20;;;;;;;14.82;100.00;99001.34;1479406;87;21404;-76
2023/10/25 01:11:17;;;;;;;16.47;8.57;;;;;;;14.81;100.00;98999.69;1493617;88;21352;-76
2023/10/25 01:13:44;;;;;;;15.83;7.83;;;;;;;14.80;100.00;98995.40;1482326;88;21323;-76
2023/10/25 01:16:14;;;;;;;23.50;9.05;;;;;;;14.82;100.00;98993.87;1488436;87;21345;-77
2023/10/25 01:18:41;;;;;;;21.13;7.87;;;;;;;14.80;100.00;98994.06;1478656;88;21367;-75
2023/10/25 01:21:09;;;;;;;17.47;7.17;;;;;;;14.82;100.00;99005.34;1485525;88;21402;-76
2023/10/25 01:23:36;;;;;;;20.50;8.47;;;;;;;14.81;100.00;99009.53;1484357;87;21433;-76
2023/10/25 01:26:04;;;;;;;28.03;8.50;;;;;;;14.81;100.00;99009.53;1482837;87;21293;-76
2023/10/25 01:28:31;;;;;;;21.37;7.23;;;;;;;14.78;100.00;99002.77;1478711;88;21316;-76
2023/10/25 01:30:59;;;;;;;23.43;6.73;;;;;;;14.79;100.00;99001.77;1474720;87;21382;-76
2023/10/25 01:33:26;;;;;;;37.57;8.73;;;;;;;14.79;100.00;98998.29;1479537;88;22297;-76
2023/10/25 01:35:53;;;;;;;28.77;7.70;;;;;;;14.79;100.00;98993.77;1481690;88;21324;-77
2023/10/25 01:38:21;;;;;;;26.37;7.63;;;;;;;14.81;100.00;98977.05;1477886;87;21486;-78
2023/10/25 01:40:48;;;;;;;29.17;7.33;;;;;;;14.83;100.00;98971.00;1478154;88;21560;-78
2023/10/25 01:43:16;;;;;;;27.33;6.37;;;;;;;14.84;100.00;98961.16;1473423;87;21369;-77
2023/10/25 01:45:43;;;;;;;24.43;7.27;;;;;;;14.86;100.00;98954.60;1463311;88;21389;-77
2023/10/25 01:48:10;;;;;;;29.03;6.67;;;;;;;14.88;100.00;98959.21;1474515;88;21338;-78
2023/10/25 01:50:37;;;;;;;23.90;7.10;;;;;;;14.88;100.00;98952.55;1479534;87;21361;-78
2023/10/25 01:53:04;;;;;;;26.17;7.40;;;;;;;14.92;100.00;98950.80;1479963;87;21493;-77
2023/10/25 01:55:34;;;;;;;28.67;7.37;;;;;;;14.95;100.00;98942.37;1476899;87;21567;-77
2023/10/25 01:58:00;;;;;;;36.40;7.57;;;;;;;14.97;100.00;98925.67;1470482;88;21391;-76
2023/10/25 02:00:27;;;;;;;28.90;7.47;;;;;;;14.99;100.00;98923.59;1466068;88;21383;-76
2023/10/25 02:02:54;;;;;;;24.20;7.20;;;;;;;15.00;100.00;98911.93;1479348;88;21489;-76
2023/10/25 02:05:21;;;;;;;23.83;7.57;;;;;;;15.01;100.00;98905.04;1471145;87;21433;-77
2023/10/25 02:07:49;;;;;;;28.17;7.10;;;;;;;15.02;100.00;98907.22;1471237;88;21629;-77
2023/10/25 02:10:18;;;;;;;34.13;8.30;;;;;;;15.05;100.00;98901.45;1481206;87;21324;-77
2023/10/25 02:12:45;;;;;;;34.40;8.63;;;;;;;15.06;100.00;98889.76;1479163;87;21478;-77
2023/10/25 02:15:12;;;;;;;44.13;9.07;;;;;;;15.08;100.00;98879.71;1475029;88;22402;-77
2023/10/25 02:17:39;;;;;;;27.90;8.13;;;;;;;15.09;100.00;98884.00;1473343;87;21295;-77
2023/10/25 02:20:08;;;;;;;36.03;6.60;;;;;;;15.11;100.00;98897.94;1474942;88;21323;-77
2023/10/25 02:22:35;;;;;;;33.40;6.60;;;;;;;15.11;100.00;98889.42;1477057;87;21501;-77
2023/10/25 02:25:02;;;;;;;28.93;7.23;;;;;;;15.14;100.00;98884.18;1476910;87;21361;-77
2023/10/25 02:27:29;;;;;;;36.57;9.43;;;;;;;15.17;100.00;98886.41;1476411;88;21338;-77
2023/10/25 02:29:56;;;;;;;33.80;7.97;;;;;;;15.19;100.00;98887.02;1472636;88;21494;-78
2023/10/25 02:32:24;;;;;;;33.43;7.00;;;;;;;15.21;100.00;98893.45;1475493;87;21404;-78
2023/10/25 02:34:51;;;;;;;28.43;7.13;;;;;;;15.22;100.00;98895.92;1475238;88;21530;-77
2023/10/25 02:37:18;;;;;;;41.30;8.93;;;;;;;15.20;100.00;98895.31;1469509;88;21368;-77
2023/10/25 02:39:45;;;;;;;39.37;9.20;;;;;;;15.19;100.00;98889.69;1474409;87;22395;-77
2023/10/25 02:42:13;;;;;;;40.33;8.80;;;;;;;15.21;100.00;98896.93;1472948;88;21398;-77
2023/10/25 02:44:40;;;;;;;37.40;6.53;;;;;;;15.19;100.00;98889.69;1476771;87;21486;-77
2023/10/25 02:47:08;;;;;;;31.43;7.67;;;;;;;15.18;100.00;98881.37;1472434;88;21442;-77
2023/10/25 02:49:35;;;;;;;36.37;7.67;;;;;;;15.18;100.00;98886.70;1475459;87;21461;-77
2023/10/25 02:52:03;;;;;;;31.27;8.43;;;;;;;15.18;100.00;98873.91;1465654;88;21486;-77
2023/10/25 02:54:30;;;;;;;35.97;7.63;;;;;;;15.21;100.00;98872.14;1462134;88;21368;-77
2023/10/25 02:56:57;;;;;;;32.93;9.87;;;;;;;15.21;100.00;98872.95;1472653;88;22189;-77
2023/10/25 02:59:24;;;;;;;46.73;8.57;;;;;;;15.20;100.00;98873.18;1474942;87;21494;-78
2023/10/25 03:01:52;;;;;;;46.00;8.93;;;;;;;15.19;100.00;98876.36;1480598;88;21478;-77
2023/10/25 03:04:19;;;;;;;42.77;7.77;;;;;;;15.19;100.00;98869.70;1467577;88;21397;-77
2023/10/25 03:06:47;;;;;;;32.10;8.03;;;;;;;15.18;100.00;98864.05;1476366;87;21450;-77
2023/10/25 03:09:14;;;;;;;35.50;7.70;;;;;;;15.19;100.00;98865.70;1471722;87;22424;-77
2023/10/25 03:11:42;;;;;;;36.07;9.10;;;;;;;15.19;100.00;98867.03;1465031;88;21389;-78
2023/10/25 03:14:09;;;;;;;34.30;8.00;;;;;;;15.21;100.00;98872.14;1471170;87;21413;-76
2023/10/25 03:16:36;;;;;;;41.37;8.80;;;;;;;15.21;100.00;98874.28;1472350;88;21383;-76
2023/10/25 03:19:03;;;;;;;34.93;6.10;;;;;;;15.22;100.00;98877.75;1472849;88;21426;-76
2023/10/25 03:21:31;;;;;;;45.50;7.20;;;;;;;15.23;100.00;98876.22;1472050;87;21411;-76
2023/10/25 03:23:58;;;;;;;43.17;7.63;;;;;;;15.24;100.00;98873.84;1465500;87;21346;-75
2023/10/25 03:26:25;;;;;;;31.63;7.50;;;;;;;15.25;100.00;98873.36;1471841;87;21396;-78
2023/10/25 03:28:52;;;;;;;45.27;10.53;;;;;;;15.27;100.00;98872.60;1464086;88;21457;-77
2023/10/25 03:31:20;;;;;;;39.97;8.83;;;;;;;15.26;100.00;98874.45;1480574;87;22467;-77
2023/10/25 03:33:48;;;;;;;33.70;7.80;;;;;;;15.27;100.00;98869.94;1481227;87;21551;-78
2023/10/25 03:36:15;;;;;;;40.67;7.83;;;;;;;15.27;100.00;98864.08;1486453;87;22343;-77
2023/10/25 03:38:43;;;;;;;42.17;8.47;;;;;;;15.27;100.00;98865.94;1485218;88;21316;-78
2023/10/25 03:41:10;;;;;;;33.43;7.93;;;;;;;15.29;100.00;98854.03;1486823;87;21353;-77
2023/10/25 03:43:37;;;;;;;36.40;7.27;;;;;;;15.31;100.00;98866.64;1482024;88;22499;-78
2023/10/25 03:46:08;;;;;;;50.80;11.27;;;;;;;15.31;100.00;98850.64;1477118;88;21404;-77
2023/10/25 03:48:37;;;;;;;40.40;10.03;;;;;;;15.30;100.00;98844.99;1478413;87;21382;-78
2023/10/25 03:51:10;;;;;;;44.00;7.97;;;;;;;15.31;100.00;98857.31;1485895;87;22409;-78
2023/10/25 03:53:39;;;;;;;41.17;9.40;;;;;;;15.31;100.00;98841.31;1490707;87;21235;-77
2023/10/25 03:56:06;;;;;;;48.43;8.23;;;;;;;15.32;100.00;98833.61;1480765;87;21426;-78
2023/10/25 03:58:34;;;;;;;35.63;8.13;;;;;;;15.31;100.00;98829.32;1478771;88;21397;-77
2023/10/25 04:01:04;;;;;;;47.07;8.93;;;;;;;15.30;100.00;98809.02;1484330;87;21493;-78
2023/10/25 04:03:32;;;;;;;50.83;8.25;;;;;;;15.30;100.00;98813.01;1485632;87;21397;-78
2023/10/25 04:05:59;;;;;;;42.47;8.03;;;;;;;15.29;100.00;98826.05;1486016;87;21582;-78
2023/10/25 04:08:27;;;;;;;29.17;8.23;;;;;;;15.29;100.00;98809.25;1485571;87;21411;-78
2023/10/25 04:10:57;;;;;;;45.70;10.93;;;;;;;15.31;100.00;98813.33;1477031;88;22471;-78
2023/10/25 04:13:25;;;;;;;51.13;10.58;;;;;;;15.32;100.00;98804.29;1487628;88;21448;-77
2023/10/25 04:16:05;;;;;;;44.70;8.23;;;;;;;15.33;100.00;98792.61;1487674;88;21464;-78
2023/10/25 04:18:33;;;;;;;41.18;8.50;;;;;;;15.35;100.00;98795.85;1481974;88;21389;-78
2023/10/25 04:21:01;;;;;;;56.67;10.40;;;;;;;15.37;100.00;98792.17;1487836;88;22298;-77
2023/10/25 04:23:44;;;;;;;43.70;9.53;;;;;;;15.38;100.00;98792.46;1475744;87;21316;-77
2023/10/25 04:26:14;;;;;;;43.23;8.33;;;;;;;15.37;100.00;98790.84;1492307;87;22315;-78
2023/10/25 04:28:44;;;;;;;40.23;8.20;;;;;;;15.37;100.00;98789.51;1484852;87;21441;-77
2023/10/25 04:31:12;;;;;;;44.57;10.03;;;;;;;15.35;100.00;98785.19;1480864;87;21419;-76
2023/10/25 04:33:40;;;;;;;36.43;8.83;;;;;;;15.38;100.00;98771.14;1477377;87;22380;-77
2023/10/25 04:36:08;;;;;;;30.10;8.03;;;;;;;15.37;100.00;98767.66;1476878;87;21523;-76
2023/10/25 04:38:35;;;;;;;39.47;9.23;;;;;;;15.37;100.00;98769.52;1475900;88;22270;-75
2023/10/25 04:41:02;;;;;;;54.40;8.87;;;;;;;15.40;100.00;98762.41;1477390;87;21383;-76
2023/10/25 04:43:30;;;;;;;58.50;9.60;;;;;;;15.41;100.00;98752.84;1471681;87;21405;-77
2023/10/25 04:45:58;;;;;;;53.13;9.53;;;;;;;15.42;100.00;98747.83;1480865;87;21478;-77
2023/10/25 04:48:25;;;;;;;36.50;7.97;;;;;;;15.43;100.00;98749.97;1475580;87;22307;-78
2023/10/25 04:50:52;;;;;;;36.07;7.83;;;;;;;15.44;100.00;98754.26;1484471;87;21441;-78
2023/10/25 04:53:20;;;;;;;23.00;8.00;;;;;;;15.41;100.00;98751.52;1477223;88;21546;-76
2023/10/25 04:55:47;;;;;;;34.00;8.10;;;;;;;15.40;100.00;98749.89;1484338;88;21360;-76
2023/10/25 04:58:15;;;;;;;34.43;8.17;;;;;;;15.39;100.00;98751.44;1478994;87;21324;-76
2023/10/25 05:00:42;;;;;;;30.27;8.63;;;;;;;15.40;100.00;98750.42;1462095;88;21375;-76
2023/10/25 05:03:11;;;;;;;31.10;9.10;;;;;;;15.39;100.00;98750.09;1472853;87;22394;-78
2023/10/25 05:05:39;;;;;;;34.97;7.93;;;;;;;15.39;100.00;98742.91;1460821;88;22342;-78
2023/10/25 05:08:11;;;;;;;33.23;8.00;;;;;;;15.39;100.00;98749.58;1468595;88;21397;-78
2023/10/25 05:10:38;;;;;;;32.20;7.73;;;;;;;15.39;100.00;98750.09;1477523;87;21504;-79
2023/10/25 05:13:06;;;;;;;29.80;8.47;;;;;;;15.38;100.00;98751.14;1478357;88;21440;-77
2023/10/25 05:15:38;;;;;;;29.80;8.50;;;;;;;15.34;100.00;98751.59;1475269;87;21441;-76
2023/10/25 05:18:04;;;;;;;29.00;8.60;;;;;;;15.29;100.00;98739.42;1469826;87;21404;-77
2023/10/25 05:20:32;;;;;;;26.73;8.30;;;;;;;15.27;100.00;98754.00;1477676;87;21519;-78
2023/10/25 05:23:03;;;;;;;36.03;8.27;;;;;;;15.25;100.00;98756.90;1465757;88;21420;-77
2023/10/25 05:25:31;;;;;;;34.70;8.63;;;;;;;15.23;100.00;98741.64;1475774;87;21339;-78
2023/10/25 05:28:03;;;;;;;26.37;7.60;;;;;;;15.22;100.00;98747.17;1469320;88;22379;-77
2023/10/25 05:30:29;;;;;;;24.53;8.73;;;;;;;15.23;100.00;98749.63;1471408;87;21441;-77
2023/10/25 05:33:02;;;;;;;34.53;6.43;;;;;;;15.22;100.00;98738.69;1481836;87;21544;-77
2023/10/25 05:35:30;;;;;;;22.20;5.77;;;;;;;15.24;100.00;98734.45;1482827;87;21927;-76
2023/10/25 05:37:58;;;;;;;26.10;7.10;;;;;;;15.24;100.00;98733.13;1488698;88;21352;-77
2023/10/25 05:40:26;;;;;;;36.20;7.53;;;;;;;15.23;100.00;98738.97;1482922;87;22454;-76
2023/10/25 05:42:59;;;;;;;30.73;5.83;;;;;;;15.24;100.00;98745.11;1478311;87;22102;-77
2023/10/25 05:45:27;;;;;;;35.90;7.03;;;;;;;15.23;100.00;98746.97;1482159;87;21496;-77
2023/10/25 05:47:54;;;;;;;28.30;6.40;;;;;;;15.24;100.00;98753.92;1483678;87;22089;-77
2023/10/25 05:50:22;;;;;;;26.67;5.40;;;;;;;15.24;100.00;98753.92;1485010;87;21352;-77
2023/10/25 05:52:50;;;;;;;25.50;6.33;;;;;;;15.24;100.00;98753.92;1485887;88;21412;-76
2023/10/25 05:55:18;;;;;;;20.33;5.63;;;;;;;15.28;100.00;98757.80;1483612;88;21418;-77
2023/10/25 05:57:46;;;;;;;26.63;5.87;;;;;;;15.32;100.00;98745.65;1486935;87;22210;-79
2023/10/25 06:00:14;;;;;;;22.20;5.90;;;;;;;15.39;100.00;98752.77;1483891;87;21322;-76
2023/10/25 06:02:43;;;;;;;30.87;6.70;;;;;;;15.44;100.00;98747.59;1477835;87;21449;-78
2023/10/25 06:05:13;;;;;;;20.83;5.87;;;;;;;15.49;100.00;98750.42;1477103;88;21668;-78
2023/10/25 06:07:41;;;;;;;26.53;7.10;;;;;;;15.51;100.00;98747.84;1404629;88;21242;-76
2023/10/25 06:10:10;;;;;;;24.37;6.97;;;;;;;15.57;100.00;98750.14;1411863;87;21498;-77
2023/10/25 06:12:40;;;;;;;22.60;5.80;;;;;;;15.61;100.00;98746.52;1550449;87;21463;-77
2023/10/25 06:15:08;;;;;;;18.85;6.75;;;;;;;15.66;100.00;98748.81;1489234;87;21551;-77
2023/10/25 06:17:35;;;;;;;27.73;6.27;;;;;;;15.70;100.00;98754.55;1482717;87;21617;-77
2023/10/25 06:20:04;;;;;;;20.20;5.90;;;;;;;15.73;100.00;98749.57;1483381;87;21448;-77
2023/10/25 06:22:31;;;;;;;22.23;6.10;;;;;;;15.79;100.00;98742.05;1478362;87;21366;-77
2023/10/25 06:24:58;;;;;;;30.90;6.27;;;;;;;15.81;100.00;98743.66;1483123;87;21526;-77
2023/10/25 06:27:26;;;;;;;20.20;6.50;;;;;;;15.83;100.00;98749.59;1483705;88;21367;-76
2023/10/25 06:29:53;;;;;;;27.63;7.67;;;;;;;15.86;100.00;98751.30;1485361;87;21345;-77
2023/10/25 06:32:20;;;;;;;21.50;6.13;;;;;;;15.88;100.00;98746.56;1481435;87;21485;-77
2023/10/25 06:34:47;;;;;;;19.27;4.57;;;;;;;15.92;100.00;98756.27;1485832;87;22490;-77
2023/10/25 06:37:14;;;;;;;23.63;5.53;;;;;;;15.94;100.00;98750.16;1484064;87;21426;-78
2023/10/25 06:39:42;;;;;;;23.37;6.17;;;;;;;15.98;100.00;98746.03;1481450;88;21588;-77
2023/10/25 06:42:12;;;;;;;15.07;4.53;;;;;;;16.01;100.00;98746.39;1481481;88;21557;-76
2023/10/25 06:44:40;;;;;;;28.50;6.05;;;;;;;16.06;100.00;98744.39;1485490;87;21471;-77
2023/10/25 06:47:09;;;;;;;21.30;4.27;;;;;;;16.10;100.00;98748.23;1478416;87;22424;-76
2023/10/25 06:49:37;;;;;;;17.20;4.93;;;;;;;16.17;100.00;98744.14;1404662;87;22086;-75
2023/10/25 06:52:06;;;;;;;19.83;5.00;;;;;;;16.24;100.00;98741.69;1478363;87;21426;-76
2023/10/25 06:54:34;;;;;;;19.90;4.50;;;;;;;16.33;100.00;98748.05;1411787;87;22381;-76
2023/10/25 06:57:02;;;;;;;24.90;4.63;;;;;;;16.36;100.00;98743.59;1569667;88;22193;-76
2023/10/25 06:59:29;;;;;;;17.80;4.23;;;;;;;16.39;100.00;98739.14;1406428;87;22093;-77
2023/10/25 07:02:08;;;;;;;17.70;4.43;;;;;;;16.43;100.00;98746.48;1432037;87;21463;-76
2023/10/25 07:04:36;;;;;;;18.27;4.57;;;;;;;16.47;100.00;98744.16;1479844;87;21602;-77
2023/10/25 07:07:09;;;;;;;21.03;4.73;;;;;;;16.53;100.00;98743.25;1478855;87;21366;-76
2023/10/25 07:09:41;;;;;;;16.30;4.27;;;;;;;16.58;100.00;98748.73;1478455;87;21823;-76
2023/10/25 07:12:08;;;;;;;17.20;3.97;;;;;;;16.64;100.00;98742.48;1479891;87;21301;-76
2023/10/25 07:14:35;;;;;;;20.73;5.23;;;;;;;16.73;100.00;98742.16;1475670;88;22490;-76
2023/10/25 07:17:02;;;;;;;16.30;4.67;;;;;;;16.80;100.00;98741.05;1482306;87;21433;-77
2023/10/25 07:19:29;;;;;;;17.90;5.10;;;;;;;17.00;100.00;98736.70;1485306;87;21582;-78
2023/10/25 07:21:56;;;;;;;19.25;3.30;;;;;;;17.25;100.00;98731.69;1480956;87;21545;-77
2023/10/25 07:24:24;;;;;;;13.35;4.03;;;;;;;17.46;100.00;98729.75;1479836;88;22144;-77
2023/10/25 07:26:51;;;;;;;16.20;3.33;;;;;;;17.59;100.00;98725.51;1485724;88;21934;-78
2023/10/25 07:29:18;;;;;;;15.88;3.50;;;;;;;17.65;100.00;98724.28;1485335;88;22306;-76
2023/10/25 07:31:45;;;;;;;14.63;3.70;;;;;;;17.63;100.00;98725.03;1482963;87;21419;-77
2023/10/25 07:34:12;;;;;;;16.15;3.25;;;;;;;17.58;100.00;98726.56;1477245;87;22365;-77
2023/10/25 07:36:39;;;;;;;16.93;3.30;;;;;;;17.48;100.00;98731.67;1477447;87;21383;-77
2023/10/25 07:39:07;;;;;;;28.92;4.55;;;;;;;17.36;100.00;98738.90;1471025;87;21630;-77
2023/10/25 07:41:34;;;;;;;16.48;3.62;;;;;;;17.29;100.00;98730.16;1470627;87;21622;-77
2023/10/25 07:44:01;;;;;;;14.90;4.42;;;;;;;17.26;100.00;98730.63;1467343;88;21456;-77
2023/10/25 07:46:28;;;;;;;11.85;4.80;;;;;;;17.21;100.00;98730.53;1469552;88;21419;-77
2023/10/25 07:48:55;;;;;;;15.40;4.03;;;;;;;17.16;100.00;98727.20;1474141;87;21978;-76
2023/10/25 07:51:23;;;;;;;10.28;3.60;;;;;;;17.13;100.00;98725.81;1470833;87;21383;-74
2023/10/25 07:53:50;;;;;;;10.78;4.30;;;;;;;17.11;100.00;98729.23;1474903;88;21487;-76
2023/10/25 07:56:18;;;;;;;8.75;3.20;;;;;;;17.13;100.00;98724.47;1470566;87;21441;-75
2023/10/25 07:58:46;;;;;;;16.05;4.28;;;;;;;17.10;100.00;98728.95;1475681;87;21382;-77
2023/10/25 08:01:13;;;;;;;14.28;3.83;;;;;;;17.06;100.00;98727.80;1474320;87;21626;-77
2023/10/25 08:03:40;;;;;;;10.90;2.75;;;;;;;17.02;100.00;98725.27;1476465;88;21434;-77
2023/10/25 08:06:09;;;;;;;8.13;2.25;;;;;;;16.98;100.00;98733.47;1463967;88;21471;-77
2023/10/25 08:08:36;;;;;;;14.13;2.70;;;;;;;16.91;100.00;98742.10;1472643;87;21574;-77
2023/10/25 08:11:04;;;;;;;12.63;2.83;;;;;;;16.87;100.00;98748.95;1478386;88;22372;-78
2023/10/25 08:13:35;;;;;;;15.75;2.83;;;;;;;16.77;100.00;98751.36;1472920;87;21483;-77
2023/10/25 08:16:03;;;;;;;7.85;2.45;;;;;;;16.72;100.00;98762.72;1468048;87;22330;-77
2023/10/25 08:18:32;;;;;;;9.40;2.40;;;;;;;16.60;100.00;98767.19;1470822;87;22499;-77
2023/10/25 08:20:59;;;;;;;8.23;2.17;;;;;;;16.52;100.00;98760.86;1402169;87;22263;-77
2023/10/25 08:23:28;;;;;;;8.63;1.97;;;;;;;16.37;100.00;98767.91;1398611;87;21331;-77
2023/10/25 08:26:01;;;;;;;9.87;2.37;;;;;;;16.25;100.00;98758.52;1557912;87;21383;-77
2023/10/25 08:28:28;;;;;;;10.13;2.87;;;;;;;16.19;100.00;98759.41;1398086;87;21214;-77
2023/10/25 08:30:56;;;;;;;12.70;3.37;;;;;;;16.12;100.00;98756.84;1399172;88;21287;-77
2023/10/25 08:33:23;;;;;;;7.67;1.97;;;;;;;16.09;100.00;98755.95;1404715;88;21312;-77
2023/10/25 08:36:02;;;;;;;9.77;2.27;;;;;;;16.08;100.00;98756.97;1398455;87;21281;-78
2023/10/25 08:38:30;;;;;;;9.33;2.70;;;;;;;16.07;100.00;98758.02;1559140;87;21251;-77
2023/10/25 08:41:09;;;;;;;9.53;2.37;;;;;;;16.10;100.00;98752.23;1398342;87;21412;-76
2023/10/25 08:43:39;;;;;;;4.60;1.90;;;;;;;16.18;100.00;98754.60;1404709;87;21280;-77
2023/10/25 08:46:07;;;;;;;8.03;2.77;;;;;;;16.29;100.00;98745.55;1395693;87;21265;-78
2023/10/25 08:48:35;;;;;;;10.00;2.00;;;;;;;16.42;100.00;98757.38;1549630;88;21506;-78
2023/10/25 08:51:04;;;;;;;10.97;2.40;;;;;;;16.54;100.00;98757.41;1391793;89;21384;-78
2023/10/25 08:53:31;;;;;;;7.60;2.33;;;;;;;16.62;100.00;98759.24;1396202;87;21243;-78
2023/10/25 08:55:59;;;;;;;4.92;2.17;;;;;;;16.66;100.00;98760.44;1399042;87;21287;-77
2023/10/25 08:58:26;;;;;;;6.00;1.73;;;;;;;16.68;100.00;98763.67;1398512;87;21317;-79
2023/10/25 09:00:55;;;;;;;11.43;2.45;;;;;;;16.72;100.00;98775.27;1398584;87;21403;-78
2023/10/25 09:03:41;;;;;;;6.97;2.20;;;;;;;16.73;100.00;98770.20;1397176;87;21596;-78
2023/10/25 09:06:10;;;;;;;15.53;2.80;;;;;;;16.72;100.00;98772.59;1552780;87;22101;-78
2023/10/25 09:08:37;;;;;;;15.97;3.63;;;;;;;16.72;100.00;98779.27;1550619;88;22123;-78
2023/10/25 09:11:09;;;;;;;6.17;2.27;;;;;;;16.71;100.00;98773.09;1397849;87;21243;-77
2023/10/25 09:13:41;;;;;;;12.55;3.22;;;;;;;16.68;100.00;98774.87;1396801;87;22211;-78
2023/10/25 09:16:13;;;;;;;8.13;2.30;;;;;;;16.63;100.00;98782.26;1552942;87;21250;-78
2023/10/25 09:18:41;;;;;;;9.60;2.10;;;;;;;16.63;100.00;98794.77;1559110;87;21198;-78
2023/10/25 09:21:11;;;;;;;12.63;3.83;;;;;;;16.59;100.00;98787.74;1397874;87;21176;-79
2023/10/25 09:23:39;;;;;;;12.90;3.25;;;;;;;16.57;100.00;98792.52;1395462;87;21474;-78
2023/10/25 09:26:16;;;;;;;11.40;2.50;;;;;;;16.55;100.00;98799.93;1398475;87;21233;-77
2023/10/25 09:28:48;;;;;;;7.10;3.00;;;;;;;16.53;100.00;98803.34;1396856;87;21251;-78
2023/10/25 09:31:26;;;;;;;13.38;3.02;;;;;;;16.49;100.00;98804.84;1395795;88;22138;-78
2023/10/25 09:34:00;;;;;;;13.40;3.80;;;;;;;16.44;100.00;98806.84;1459717;87;21438;-77
2023/10/25 09:36:26;;;;;;;11.03;3.40;;;;;;;16.41;100.00;98808.62;1423257;87;22232;-78
2023/10/25 09:38:54;;;;;;;6.73;2.30;;;;;;;16.39;100.00;98811.22;1411777;88;21271;-78
2023/10/25 09:41:22;;;;;;;13.20;3.07;;;;;;;16.40;100.00;98805.67;1406555;87;22224;-78
2023/10/25 09:43:51;;;;;;;14.07;3.77;;;;;;;16.42;100.00;98809.44;1406215;87;22056;-78
2023/10/25 09:46:22;;;;;;;11.00;3.83;;;;;;;16.42;100.00;98818.26;1404686;87;22248;-78
2023/10/25 09:49:03;;;;;;;10.93;4.75;;;;;;;16.49;100.00;98811.52;1409713;87;21323;-78
2023/10/25 09:52:24;;;;;;;14.40;5.17;;;;;;;16.52;100.00;98821.75;1404330;87;21375;-78
2023/10/25 09:58:39;;;;;;;18.17;7.15;;;;;;;16.77;100.00;98815.48;1402448;102;21263;-78
2023/10/25 10:01:08;;;;;;;17.80;7.80;;;;;;;16.88;100.00;98812.03;1412823;87;22099;-78
2023/10/25 10:03:58;;;;;;;19.77;7.45;;;;;;;16.89;100.00;98804.33;1482792;88;21731;-78
2023/10/25 10:07:00;;;;;;;15.08;8.10;;;;;;;16.93;100.00;98817.52;1479498;87;21427;-79
2023/10/25 10:09:36;;;;;;;21.48;9.83;;;;;;;16.91;100.00;98826.27;1482016;87;21617;-78
2023/10/25 10:12:07;;;;;;;24.18;8.08;;;;;;;16.90;100.00;98828.66;1481751;87;22623;-78
2023/10/25 10:14:39;;;;;;;24.12;10.15;;;;;;;16.89;100.00;98835.05;1478846;88;21382;-78
2023/10/25 10:17:16;;;;;;;15.18;8.80;;;;;;;16.94;100.00;98835.16;1473810;88;21571;-78
2023/10/25 10:19:47;;;;;;;27.95;12.10;;;;;;;17.05;100.00;98843.74;1483871;87;21418;-83
2023/10/25 10:22:18;;;;;;;17.95;7.05;;;;;;;17.14;100.00;98854.39;1481557;87;21389;-85
2023/10/25 10:24:56;;;;;;;33.90;11.97;;;;;;;17.18;100.00;98853.97;1483797;88;21523;-84
2023/10/25 10:27:34;;;;;;;23.27;10.82;;;;;;;17.23;100.00;98860.23;1483213;88;21374;-83
2023/10/25 10:30:01;;;;;;;21.35;9.68;;;;;;;17.26;100.00;98873.17;1474103;87;21514;-84
2023/10/25 10:32:32;;;;;;;25.43;10.32;;;;;;;17.28;100.00;98879.08;1477888;87;21507;-82
2023/10/25 10:35:01;;;;;;;25.27;8.78;;;;;;;17.32;100.00;98886.11;1453592;88;21612;-77
2023/10/25 10:37:32;;;;;;;22.10;9.45;;;;;;;17.33;100.00;98892.58;1478845;88;21448;-77
2023/10/25 10:40:07;;;;;;;21.00;8.83;;;;;;;17.36;100.00;98881.42;1481661;87;21809;-77
2023/10/25 10:42:38;;;;;;;25.72;8.48;;;;;;;17.37;100.00;98884.91;1488641;88;21440;-77
2023/10/25 10:45:09;;;;;;;32.48;9.60;;;;;;;17.39;100.00;98884.17;1468126;88;21578;-77
2023/10/25 10:47:45;;;;;;;27.55;12.20;;;;;;;17.36;100.00;98888.11;1481571;87;21382;-77
2023/10/25 10:50:21;;;;;;;12.88;7.30;;;;;;;17.33;100.00;98887.77;1482318;88;21514;-76
2023/10/25 10:52:50;;;;;;;12.20;5.25;;;;;;;17.31;100.00;98893.85;1474730;88;21566;-77
2023/10/25 10:55:21;;;;;;;9.05;4.45;;;;;;;17.27;100.00;98894.03;1476279;87;21426;-82
2023/10/25 10:57:49;;;;;;;6.50;3.05;;;;;;;17.16;100.00;98896.14;1479754;88;21337;-82
2023/10/25 11:00:18;;;;;;;6.30;3.00;;;;;;;17.03;100.00;98901.13;1476076;88;22262;-79
2023/10/25 11:06:47;;;;;;;2.83;1.95;;;;;;;16.97;100.00;98903.37;1477395;88;21567;-80
2023/10/25 11:09:14;;;;;;;4.83;2.60;;;;;;;16.96;100.00;98905.24;1485811;87;21625;-79
2023/10/25 11:11:41;;;;;;;3.03;2.27;;;;;;;16.96;100.00;98910.59;1479839;88;21441;-79
2023/10/25 11:14:08;;;;;;;3.83;2.12;;;;;;;16.98;100.00;98917.87;1472562;88;21874;-79
2023/10/25 11:16:35;;;;;;;2.52;1.98;;;;;;;16.97;100.00;98917.55;1463283;88;21389;-79
2023/10/25 11:19:07;;;;;;;3.07;2.40;;;;;;;16.99;100.00;98928.84;1466099;88;21375;-80
2023/10/25 11:21:34;;;;;;;4.65;1.50;;;;;;;17.00;100.00;98935.80;1478294;87;22246;-80
2023/10/25 11:24:06;;;;;;;2.17;1.87;;;;;;;17.09;100.00;98924.28;1402426;88;21286;-78
2023/10/25 11:26:30;;;;;;;3.70;2.60;;;;;;;17.13;100.00;98927.63;1406247;87;21389;-80
2023/10/25 11:28:58;;;;;;;4.15;2.58;;;;;;;17.21;100.00;98928.36;1409648;87;21279;-79
2023/10/25 11:31:27;;;;;;;5.65;2.62;;;;;;;17.24;100.00;98927.91;1390867;88;21309;-80
2023/10/25 11:33:54;;;;;;;4.55;2.60;;;;;;;17.25;100.00;98942.89;1395327;88;21471;-80